sensor_id;sensor_type;location;lat;lon;timestamp;P1;durP1;ratioP1;P2;durP2;ratioP2
14241;SDS011;7205;50.864;12.766;2024-02-15T00:00:51;0.60;;;0.60;;
14241;SDS011;7205;50.864;12.766;2024-02-15T00:03:18;0.53;;;0.53;;
14241;SDS011;7205;50.864;12.766;2024-02-15T00:05:46;0.50;;;0.50;;
14241;SDS011;7205;50.864;12.766;2024-02-15T00:08:13;0.60;;;0.60;;
14241;SDS011;7205;50.864;12.766;2024-02-15T00:10:41;0.80;;;0.80;;
14241;SDS011;7205;50.864;12.766;2024-02-15T00:13:08;0.60;;;0.60;;
14241;SDS011;7205;50.864;12.766;2024-02-15T00:15:36;0.73;;;0.73;;
14241;SDS011;7205;50.864;12.766;2024-02-15T00:18:03;0.60;;;0.60;;
14241;SDS011;7205;50.864;12.766;2024-02-15T00:20:30;0.60;;;0.60;;
14241;SDS011;7205;50.864;12.766;2024-02-15T00:22:59;0.63;;;0.53;;
14241;SDS011;7205;50.864;12.766;2024-02-15T00:25:25;0.50;;;0.50;;
14241;SDS011;7205;50.864;12.766;2024-02-15T00:27:52;0.70;;;0.70;;
14241;SDS011;7205;50.864;12.766;2024-02-15T00:30:19;0.63;;;0.63;;
14241;SDS011;7205;50.864;12.766;2024-02-15T00:32:49;0.50;;;0.50;;
14241;SDS011;7205;50.864;12.766;2024-02-15T00:35:16;0.40;;;0.40;;
14241;SDS011;7205;50.864;12.766;2024-02-15T00:37:43;0.60;;;0.60;;
14241;SDS011;7205;50.864;12.766;2024-02-15T00:40:11;1.10;;;0.53;;
14241;SDS011;7205;50.864;12.766;2024-02-15T00:42:38;0.70;;;0.70;;
14241;SDS011;7205;50.864;12.766;2024-02-15T00:45:05;0.60;;;0.60;;
14241;SDS011;7205;50.864;12.766;2024-02-15T00:47:34;0.60;;;0.60;;
14241;SDS011;7205;50.864;12.766;2024-02-15T00:50:02;0.73;;;0.73;;
14241;SDS011;7205;50.864;12.766;2024-02-15T00:52:29;0.70;;;0.70;;
14241;SDS011;7205;50.864;12.766;2024-02-15T00:54:57;0.80;;;0.80;;
14241;SDS011;7205;50.864;12.766;2024-02-15T00:57:23;0.70;;;0.70;;
14241;SDS011;7205;50.864;12.766;2024-02-15T00:59:50;0.70;;;0.70;;
14241;SDS011;7205;50.864;12.766;2024-02-15T01:02:18;0.70;;;0.70;;
14241;SDS011;7205;50.864;12.766;2024-02-15T01:04:45;0.67;;;0.67;;
14241;SDS011;7205;50.864;12.766;2024-02-15T01:07:13;0.80;;;0.80;;
14241;SDS011;7205;50.864;12.766;2024-02-15T01:09:39;0.90;;;0.90;;
14241;SDS011;7205;50.864;12.766;2024-02-15T01:12:06;1.10;;;1.10;;
14241;SDS011;7205;50.864;12.766;2024-02-15T01:14:34;0.90;;;0.90;;
14241;SDS011;7205;50.864;12.766;2024-02-15T01:17:01;0.90;;;0.90;;
14241;SDS011;7205;50.864;12.766;2024-02-15T01:19:29;0.70;;;0.70;;
14241;SDS011;7205;50.864;12.766;2024-02-15T01:21:55;0.87;;;0.87;;
14241;SDS011;7205;50.864;12.766;2024-02-15T01:24:26;0.80;;;0.80;;
14241;SDS011;7205;50.864;12.766;2024-02-15T01:26:52;1.03;;;1.03;;
14241;SDS011;7205;50.864;12.766;2024-02-15T01:29:20;0.80;;;0.80;;
14241;SDS011;7205;50.864;12.766;2024-02-15T01:31:47;0.70;;;0.70;;
14241;SDS011;7205;50.864;12.766;2024-02-15T01:34:14;0.97;;;0.97;;
14241;SDS011;7205;50.864;12.766;2024-02-15T01:36:42;0.90;;;0.90;;
14241;SDS011;7205;50.864;12.766;2024-02-15T01:39:09;0.90;;;0.90;;
14241;SDS011;7205;50.864;12.766;2024-02-15T01:41:37;0.83;;;0.83;;
14241;SDS011;7205;50.864;12.766;2024-02-15T01:44:04;1.17;;;1.17;;
14241;SDS011;7205;50.864;12.766;2024-02-15T01:46:39;1.10;;;1.10;;
14241;SDS011;7205;50.864;12.766;2024-02-15T01:49:06;0.90;;;0.90;;
14241;SDS011;7205;50.864;12.766;2024-02-15T01:51:33;0.90;;;0.90;;
14241;SDS011;7205;50.864;12.766;2024-02-15T01:54:02;1.00;;;1.00;;
14241;SDS011;7205;50.864;12.766;2024-02-15T01:56:29;1.20;;;1.20;;
14241;SDS011;7205;50.864;12.766;2024-02-15T01:58:59;1.00;;;1.00;;
14241;SDS011;7205;50.864;12.766;2024-02-15T02:01:27;1.10;;;1.10;;
14241;SDS011;7205;50.864;12.766;2024-02-15T02:03:54;1.00;;;1.00;;
14241;SDS011;7205;50.864;12.766;2024-02-15T02:06:22;1.17;;;1.17;;
14241;SDS011;7205;50.864;12.766;2024-02-15T02:08:49;1.00;;;1.00;;
14241;SDS011;7205;50.864;12.766;2024-02-15T02:11:16;1.00;;;1.00;;
14241;SDS011;7205;50.864;12.766;2024-02-15T02:13:43;1.03;;;1.03;;
14241;SDS011;7205;50.864;12.766;2024-02-15T02:18:54;1.00;;;1.00;;
14241;SDS011;7205;50.864;12.766;2024-02-15T02:21:22;0.93;;;0.93;;
14241;SDS011;7205;50.864;12.766;2024-02-15T02:23:52;1.00;;;1.00;;
14241;SDS011;7205;50.864;12.766;2024-02-15T02:26:23;1.00;;;1.00;;
14241;SDS011;7205;50.864;12.766;2024-02-15T02:28:51;1.23;;;1.20;;
14241;SDS011;7205;50.864;12.766;2024-02-15T02:31:18;1.37;;;1.27;;
14241;SDS011;7205;50.864;12.766;2024-02-15T02:33:47;1.00;;;1.00;;
14241;SDS011;7205;50.864;12.766;2024-02-15T02:36:17;1.17;;;1.17;;
14241;SDS011;7205;50.864;12.766;2024-02-15T02:38:44;0.93;;;0.93;;
14241;SDS011;7205;50.864;12.766;2024-02-15T02:41:11;0.97;;;0.97;;
14241;SDS011;7205;50.864;12.766;2024-02-15T02:43:40;1.10;;;1.10;;
14241;SDS011;7205;50.864;12.766;2024-02-15T02:46:09;0.97;;;0.97;;
14241;SDS011;7205;50.864;12.766;2024-02-15T02:48:37;0.80;;;0.80;;
14241;SDS011;7205;50.864;12.766;2024-02-15T02:51:04;1.00;;;1.00;;
14241;SDS011;7205;50.864;12.766;2024-02-15T02:53:32;1.33;;;0.90;;
14241;SDS011;7205;50.864;12.766;2024-02-15T02:55:59;1.53;;;0.97;;
14241;SDS011;7205;50.864;12.766;2024-02-15T02:58:26;0.70;;;0.70;;
14241;SDS011;7205;50.864;12.766;2024-02-15T03:00:55;1.10;;;1.10;;
14241;SDS011;7205;50.864;12.766;2024-02-15T03:03:25;0.87;;;0.87;;
14241;SDS011;7205;50.864;12.766;2024-02-15T03:05:52;0.97;;;0.97;;
14241;SDS011;7205;50.864;12.766;2024-02-15T03:08:20;1.13;;;1.13;;
14241;SDS011;7205;50.864;12.766;2024-02-15T03:10:47;0.87;;;0.87;;
14241;SDS011;7205;50.864;12.766;2024-02-15T03:13:14;1.07;;;1.07;;
14241;SDS011;7205;50.864;12.766;2024-02-15T03:15:44;1.13;;;0.90;;
14241;SDS011;7205;50.864;12.766;2024-02-15T03:18:14;0.90;;;0.90;;
14241;SDS011;7205;50.864;12.766;2024-02-15T03:20:41;0.80;;;0.80;;
14241;SDS011;7205;50.864;12.766;2024-02-15T03:23:08;0.93;;;0.93;;
14241;SDS011;7205;50.864;12.766;2024-02-15T03:25:36;0.80;;;0.80;;
14241;SDS011;7205;50.864;12.766;2024-02-15T03:28:03;0.80;;;0.80;;
14241;SDS011;7205;50.864;12.766;2024-02-15T03:30:31;0.90;;;0.90;;
14241;SDS011;7205;50.864;12.766;2024-02-15T03:32:59;1.00;;;0.90;;
14241;SDS011;7205;50.864;12.766;2024-02-15T03:35:27;0.97;;;0.97;;
14241;SDS011;7205;50.864;12.766;2024-02-15T03:37:56;0.63;;;0.63;;
14241;SDS011;7205;50.864;12.766;2024-02-15T03:40:23;1.00;;;1.00;;
14241;SDS011;7205;50.864;12.766;2024-02-15T03:42:52;0.70;;;0.70;;
14241;SDS011;7205;50.864;12.766;2024-02-15T03:45:19;0.90;;;0.90;;
14241;SDS011;7205;50.864;12.766;2024-02-15T03:47:46;1.00;;;1.00;;
14241;SDS011;7205;50.864;12.766;2024-02-15T03:50:15;1.43;;;1.00;;
14241;SDS011;7205;50.864;12.766;2024-02-15T03:52:43;1.10;;;1.03;;
14241;SDS011;7205;50.864;12.766;2024-02-15T03:55:10;1.00;;;1.00;;
14241;SDS011;7205;50.864;12.766;2024-02-15T03:57:37;0.80;;;0.80;;
14241;SDS011;7205;50.864;12.766;2024-02-15T04:00:06;0.80;;;0.80;;
14241;SDS011;7205;50.864;12.766;2024-02-15T04:02:36;0.63;;;0.63;;
14241;SDS011;7205;50.864;12.766;2024-02-15T04:05:05;0.63;;;0.63;;
14241;SDS011;7205;50.864;12.766;2024-02-15T04:07:34;0.60;;;0.60;;
14241;SDS011;7205;50.864;12.766;2024-02-15T04:10:05;0.70;;;0.70;;
14241;SDS011;7205;50.864;12.766;2024-02-15T04:12:33;0.70;;;0.70;;
14241;SDS011;7205;50.864;12.766;2024-02-15T04:15:01;0.70;;;0.70;;
14241;SDS011;7205;50.864;12.766;2024-02-15T04:17:32;0.80;;;0.80;;
14241;SDS011;7205;50.864;12.766;2024-02-15T04:20:00;0.70;;;0.70;;
14241;SDS011;7205;50.864;12.766;2024-02-15T04:22:28;0.80;;;0.80;;
14241;SDS011;7205;50.864;12.766;2024-02-15T04:24:57;0.80;;;0.80;;
14241;SDS011;7205;50.864;12.766;2024-02-15T04:27:25;0.80;;;0.80;;
14241;SDS011;7205;50.864;12.766;2024-02-15T04:29:52;0.80;;;0.80;;
14241;SDS011;7205;50.864;12.766;2024-02-15T04:32:20;0.80;;;0.60;;
14241;SDS011;7205;50.864;12.766;2024-02-15T04:34:47;1.10;;;1.10;;
14241;SDS011;7205;50.864;12.766;2024-02-15T04:37:14;2.27;;;2.17;;
14241;SDS011;7205;50.864;12.766;2024-02-15T04:39:42;2.47;;;2.30;;
14241;SDS011;7205;50.864;12.766;2024-02-15T04:42:08;2.00;;;1.90;;
14241;SDS011;7205;50.864;12.766;2024-02-15T04:44:39;3.20;;;3.00;;
14241;SDS011;7205;50.864;12.766;2024-02-15T04:47:06;3.63;;;3.33;;
14241;SDS011;7205;50.864;12.766;2024-02-15T04:49:33;2.67;;;2.47;;
14241;SDS011;7205;50.864;12.766;2024-02-15T04:52:03;3.00;;;2.80;;
14241;SDS011;7205;50.864;12.766;2024-02-15T04:54:31;3.90;;;3.60;;
14241;SDS011;7205;50.864;12.766;2024-02-15T04:56:59;2.03;;;1.93;;
14241;SDS011;7205;50.864;12.766;2024-02-15T04:59:26;3.07;;;2.87;;
14241;SDS011;7205;50.864;12.766;2024-02-15T05:01:55;3.07;;;2.87;;
14241;SDS011;7205;50.864;12.766;2024-02-15T05:04:23;5.33;;;4.90;;
14241;SDS011;7205;50.864;12.766;2024-02-15T05:06:50;2.83;;;2.63;;
14241;SDS011;7205;50.864;12.766;2024-02-15T05:09:18;2.33;;;2.23;;
14241;SDS011;7205;50.864;12.766;2024-02-15T05:11:44;2.70;;;2.50;;
14241;SDS011;7205;50.864;12.766;2024-02-15T05:14:13;5.77;;;5.27;;
14241;SDS011;7205;50.864;12.766;2024-02-15T05:16:44;2.83;;;2.63;;
14241;SDS011;7205;50.864;12.766;2024-02-15T05:19:15;3.40;;;3.10;;
14241;SDS011;7205;50.864;12.766;2024-02-15T05:21:43;8.03;;;7.00;;
14241;SDS011;7205;50.864;12.766;2024-02-15T05:24:12;2.03;;;1.93;;
14241;SDS011;7205;50.864;12.766;2024-02-15T05:26:39;2.93;;;2.73;;
14241;SDS011;7205;50.864;12.766;2024-02-15T05:29:08;3.73;;;3.43;;
14241;SDS011;7205;50.864;12.766;2024-02-15T05:31:35;5.40;;;4.90;;
14241;SDS011;7205;50.864;12.766;2024-02-15T05:34:04;5.67;;;5.17;;
14241;SDS011;7205;50.864;12.766;2024-02-15T05:36:34;8.27;;;7.37;;
14241;SDS011;7205;50.864;12.766;2024-02-15T05:39:01;8.80;;;7.93;;
14241;SDS011;7205;50.864;12.766;2024-02-15T05:41:30;4.60;;;3.87;;
14241;SDS011;7205;50.864;12.766;2024-02-15T05:43:58;3.70;;;3.40;;
14241;SDS011;7205;50.864;12.766;2024-02-15T05:46:25;8.90;;;8.03;;
14241;SDS011;7205;50.864;12.766;2024-02-15T05:48:53;4.87;;;4.47;;
14241;SDS011;7205;50.864;12.766;2024-02-15T05:51:21;13.77;;;12.10;;
14241;SDS011;7205;50.864;12.766;2024-02-15T05:53:50;3.83;;;3.53;;
14241;SDS011;7205;50.864;12.766;2024-02-15T05:56:18;3.77;;;3.47;;
14241;SDS011;7205;50.864;12.766;2024-02-15T05:58:45;4.73;;;4.33;;
14241;SDS011;7205;50.864;12.766;2024-02-15T06:01:13;2.50;;;2.40;;
14241;SDS011;7205;50.864;12.766;2024-02-15T06:03:40;2.30;;;2.10;;
14241;SDS011;7205;50.864;12.766;2024-02-15T06:06:09;4.23;;;3.90;;
14241;SDS011;7205;50.864;12.766;2024-02-15T06:08:37;4.43;;;4.10;;
14241;SDS011;7205;50.864;12.766;2024-02-15T06:11:05;4.73;;;4.33;;
14241;SDS011;7205;50.864;12.766;2024-02-15T06:13:34;6.77;;;6.17;;
14241;SDS011;7205;50.864;12.766;2024-02-15T06:16:01;4.50;;;4.10;;
14241;SDS011;7205;50.864;12.766;2024-02-15T06:18:34;6.73;;;6.13;;
14241;SDS011;7205;50.864;12.766;2024-02-15T06:21:02;6.63;;;5.93;;
14241;SDS011;7205;50.864;12.766;2024-02-15T06:23:31;4.43;;;4.07;;
14241;SDS011;7205;50.864;12.766;2024-02-15T06:25:58;2.90;;;2.70;;
14241;SDS011;7205;50.864;12.766;2024-02-15T06:28:27;2.13;;;2.03;;
